Time;durP1;ratioP1;P1;durP2;ratioP2;P2;SDS_P1;SDS_P2;PMS_P1;PMS_P2;Temp;Humidity;BMP_temperature;BMP_pressure;BME280_temperature;BME280_humidity;BME280_pressure;Samples;Min_cycle;Max_cycle;Signal;HPM_P1;HPM_P2
2022/05/04 00:00:16;;;;;;;5.95;2.65;;;;;;;12.65;55.38;150831.25;1793083;78;20862;-59
2022/05/04 00:02:43;;;;;;;4.55;2.37;;;;;;;12.61;55.45;150822.19;1793573;80;21055;-59
2022/05/04 00:05:10;;;;;;;8.00;2.80;;;;;;;12.59;55.33;150818.28;1793046;80;20928;-59
2022/05/04 00:07:38;;;;;;;6.42;2.42;;;;;;;12.56;55.41;150810.48;1792909;80;21075;-59
2022/05/04 00:10:06;;;;;;;4.70;2.45;;;;;;;12.55;55.64;150807.89;1793665;80;21920;-59
2022/05/04 00:12:34;;;;;;;6.40;2.22;;;;;;;12.55;55.67;150806.56;1793769;80;20995;-59
2022/05/04 00:15:01;;;;;;;6.20;2.55;;;;;;;12.54;55.86;150805.28;1788890;79;20978;-58
2022/05/04 00:17:28;;;;;;;3.80;2.22;;;;;;;12.54;55.98;150805.28;1785267;80;21097;-59
2022/05/04 00:19:56;;;;;;;5.75;2.17;;;;;;;12.53;56.18;150802.69;1785294;79;21351;-59
2022/05/04 00:22:23;;;;;;;8.63;2.40;;;;;;;12.55;56.31;150807.89;1784886;80;21414;-58
2022/05/04 00:24:51;;;;;;;4.47;2.60;;;;;;;12.56;56.39;150809.16;1729791;80;21477;-59
2022/05/04 00:27:18;;;;;;;4.83;2.70;;;;;;;12.55;56.48;150807.89;1784927;80;20850;-60
2022/05/04 00:29:46;;;;;;;3.70;2.40;;;;;;;12.56;56.40;150809.16;1785059;79;21461;-60
2022/05/04 00:32:14;;;;;;;5.00;2.08;;;;;;;12.58;56.38;150815.67;1785628;80;21061;-59
2022/05/04 00:34:41;;;;;;;5.25;2.70;;;;;;;12.57;56.22;150813.08;1785070;80;21305;-60
2022/05/04 00:37:08;;;;;;;4.22;2.50;;;;;;;12.57;56.18;150813.08;1784881;80;21048;-58
2022/05/04 00:39:36;;;;;;;4.67;2.20;;;;;;;12.60;56.11;150819.59;1784446;80;21099;-59
2022/05/04 00:42:15;;;;;;;5.45;2.58;;;;;;;12.64;56.00;150828.66;1785021;79;21455;-61
2022/05/04 00:44:46;;;;;;;4.22;2.15;;;;;;;12.65;56.00;150832.58;1784467;80;21707;-60
2022/05/04 00:47:14;;;;;;;7.03;2.20;;;;;;;12.64;56.22;150828.66;1785283;80;21224;-60
2022/05/04 00:49:41;;;;;;;3.87;2.55;;;;;;;12.68;56.33;150840.37;1784947;80;22083;-60
2022/05/04 00:52:10;;;;;;;3.50;2.35;;;;;;;12.72;56.41;150849.48;1785329;80;21071;-61
2022/05/04 00:54:37;;;;;;;5.12;2.12;;;;;;;12.75;56.23;150857.28;1785016;80;21095;-59
2022/05/04 00:57:06;;;;;;;5.85;2.25;;;;;;;12.75;56.12;150857.28;1785904;80;20977;-60
2022/05/04 00:59:33;;;;;;;5.22;2.35;;;;;;;12.76;55.88;150859.88;1785366;80;21243;-60
2022/05/04 01:02:00;;;;;;;3.62;2.10;;;;;;;12.77;55.51;150862.47;1785292;80;21505;-60
2022/05/04 01:04:27;;;;;;;3.87;2.30;;;;;;;12.79;55.19;150867.66;1785038;80;21388;-60
2022/05/04 01:06:55;;;;;;;5.92;1.95;;;;;;;12.81;54.93;150871.53;1785410;80;21047;-60
2022/05/04 01:09:22;;;;;;;5.40;2.37;;;;;;;12.82;54.96;150875.45;1785057;80;21130;-59
2022/05/04 01:11:49;;;;;;;3.45;2.17;;;;;;;12.83;54.88;150878.06;1785201;80;21293;-60
2022/05/04 01:14:17;;;;;;;3.80;2.15;;;;;;;12.86;55.05;150884.58;1782573;80;20938;-59
2022/05/04 01:16:48;;;;;;;5.47;2.80;;;;;;;12.85;55.22;150883.25;1762563;81;21036;-60
2022/05/04 01:19:15;;;;;;;3.98;2.40;;;;;;;12.86;55.37;150884.58;1762991;81;20990;-62
2022/05/04 01:21:42;;;;;;;4.08;2.50;;;;;;;12.85;55.69;150883.25;1762323;80;20981;-60
2022/05/04 01:24:10;;;;;;;5.67;2.22;;;;;;;12.86;55.82;150884.58;1763154;80;21251;-60
2022/05/04 01:26:37;;;;;;;4.45;2.42;;;;;;;12.86;55.98;150885.84;1762430;81;21597;-60
2022/05/04 01:29:05;;;;;;;4.30;2.25;;;;;;;12.86;56.05;150885.84;1763256;81;21052;-60
2022/05/04 01:31:34;;;;;;;4.28;2.52;;;;;;;12.85;56.08;150883.25;1762278;81;21496;-60
2022/05/04 01:34:02;;;;;;;3.77;2.47;;;;;;;12.83;56.27;150878.06;1762554;81;21458;-60
2022/05/04 01:36:29;;;;;;;4.15;2.33;;;;;;;12.83;56.08;150878.06;1761932;81;21230;-60
2022/05/04 01:38:56;;;;;;;6.10;2.60;;;;;;;12.83;56.00;150878.06;1762712;81;20957;-61
2022/05/04 01:44:09;;;;;;;8.45;2.40;;;;;;;12.83;55.65;150878.06;1763084;80;21475;-61
2022/05/04 01:46:36;;;;;;;4.12;2.42;;;;;;;12.82;55.45;150875.45;1762619;81;22174;-59
2022/05/04 01:49:05;;;;;;;4.22;2.25;;;;;;;12.81;55.23;150872.86;1762911;81;21868;-60
2022/05/04 01:51:32;;;;;;;8.28;2.25;;;;;;;12.82;55.13;150874.13;1761825;81;21075;-61
2022/05/04 01:53:59;;;;;;;3.90;2.40;;;;;;;12.79;54.45;150867.66;1762881;80;21060;-59
2022/05/04 01:56:27;;;;;;;5.17;2.05;;;;;;;12.75;54.02;150857.28;1761861;81;21016;-60
2022/05/04 01:58:54;;;;;;;3.60;2.25;;;;;;;12.67;53.67;150837.78;1762317;81;21055;-59
2022/05/04 02:01:21;;;;;;;4.25;2.42;;;;;;;12.61;53.53;150823.47;1762205;80;21244;-59
2022/05/04 02:03:49;;;;;;;6.90;2.35;;;;;;;12.56;53.59;150810.48;1762645;80;21029;-59
2022/05/04 02:06:16;;;;;;;7.30;2.90;;;;;;;12.52;53.62;150798.77;1762773;81;20882;-59
2022/05/04 02:08:46;;;;;;;5.72;2.50;;;;;;;12.48;53.81;150789.66;1762672;81;21044;-59
2022/05/04 02:11:13;;;;;;;5.70;2.70;;;;;;;12.44;54.00;150780.59;1763097;81;21499;-59
2022/05/04 02:13:41;;;;;;;6.40;2.50;;;;;;;12.41;54.13;150771.48;1762739;81;22711;-60
2022/05/04 02:16:08;;;;;;;3.60;2.60;;;;;;;12.38;54.18;150765.02;1785858;80;21063;-59
2022/05/04 02:18:35;;;;;;;7.55;2.90;;;;;;;12.36;54.39;150758.50;1793185;80;21082;-59
2022/05/04 02:21:02;;;;;;;5.00;2.80;;;;;;;12.32;54.62;150750.72;1793826;80;21375;-60
2022/05/04 02:23:30;;;;;;;5.40;3.15;;;;;;;12.29;54.90;150741.59;1793377;80;21015;-60
2022/05/04 02:25:57;;;;;;;4.20;2.30;;;;;;;12.28;54.95;150739.00;1793502;80;21509;-61
2022/05/04 02:28:24;;;;;;;6.58;2.85;;;;;;;12.25;55.15;150731.22;1793032;80;21064;-61
2022/05/04 02:30:51;;;;;;;4.45;2.85;;;;;;;12.22;55.18;150724.70;1793485;78;21473;-61
2022/05/04 02:33:18;;;;;;;4.85;2.70;;;;;;;12.21;54.96;150722.09;1793313;78;20980;-60
2022/05/04 02:38:32;;;;;;;8.30;2.70;;;;;;;12.16;54.65;150710.44;1792837;80;21224;-59
2022/05/04 02:40:59;;;;;;;4.97;2.85;;;;;;;12.15;54.32;150706.53;1793155;80;21098;-60
2022/05/04 02:43:28;;;;;;;6.53;2.72;;;;;;;12.13;54.21;150702.61;1793707;80;20987;-60
2022/05/04 02:45:58;;;;;;;6.72;2.58;;;;;;;12.10;53.86;150694.83;1793351;80;21627;-60
2022/05/04 02:48:25;;;;;;;5.85;2.72;;;;;;;12.09;53.79;150690.95;1793647;80;21278;-61
2022/05/04 02:50:52;;;;;;;4.05;2.58;;;;;;;12.07;53.55;150685.77;1793766;80;21244;-60
2022/05/04 02:53:20;;;;;;;4.87;2.47;;;;;;;12.07;53.80;150685.77;1793312;80;20988;-61
2022/05/04 02:55:47;;;;;;;4.35;2.50;;;;;;;12.08;53.71;150689.63;1793276;80;21058;-60
2022/05/04 02:58:14;;;;;;;3.25;2.40;;;;;;;12.09;53.60;150690.95;1793450;80;20900;-61
2022/05/04 03:00:41;;;;;;;6.12;2.47;;;;;;;12.08;53.39;150688.36;1792925;80;21103;-61
2022/05/04 03:03:08;;;;;;;5.55;2.40;;;;;;;12.07;53.39;150685.77;1793495;80;21135;-60
2022/05/04 03:05:36;;;;;;;4.65;2.90;;;;;;;12.07;53.12;150685.77;1792592;80;21047;-61
2022/05/04 03:08:04;;;;;;;5.85;2.95;;;;;;;12.06;53.02;150683.16;1793147;80;21020;-60
2022/05/04 03:11:54;;;;;;;4.25;2.42;;;;;;;12.03;53.01;150677.92;1792821;80;21051;-60
2022/05/04 03:13:01;;;;;;;5.10;2.37;;;;;;;12.06;53.05;150683.16;1788429;80;21007;-60
2022/05/04 03:15:29;;;;;;;8.53;2.52;;;;;;;12.09;53.04;150690.95;1782695;80;21578;-60
2022/05/04 03:17:56;;;;;;;4.55;2.45;;;;;;;12.14;52.83;150703.94;1762592;81;21073;-59
2022/05/04 03:20:23;;;;;;;7.72;2.65;;;;;;;12.17;52.58;150711.72;1762456;81;21037;-59
2022/05/04 03:22:50;;;;;;;5.45;2.47;;;;;;;12.17;52.44;150713.03;1762581;81;21033;-60
2022/05/04 03:25:17;;;;;;;5.35;2.45;;;;;;;12.19;52.47;150716.91;1762875;80;20938;-60
2022/05/04 03:27:46;;;;;;;4.08;2.90;;;;;;;12.25;52.56;150731.22;1762422;81;21134;-59
2022/05/04 03:30:14;;;;;;;6.80;3.00;;;;;;;12.32;52.42;150750.72;1762495;81;21038;-60
2022/05/04 03:32:41;;;;;;;5.87;2.70;;;;;;;12.39;52.34;150766.30;1762326;80;21108;-61
2022/05/04 03:35:09;;;;;;;5.00;2.22;;;;;;;12.44;52.25;150779.27;1762343;80;21462;-60
2022/05/04 03:37:36;;;;;;;10.40;2.67;;;;;;;12.50;52.24;150794.91;1762786;81;20949;-60
2022/05/04 03:40:05;;;;;;;8.73;2.60;;;;;;;12.58;52.09;150815.67;1763086;80;21403;-62
2022/05/04 03:42:32;;;;;;;4.75;2.60;;;;;;;12.67;51.95;150837.78;1763265;81;21635;-60
2022/05/04 03:45:00;;;;;;;5.25;2.90;;;;;;;12.75;51.62;150857.28;1762749;81;21094;-60
2022/05/04 03:47:27;;;;;;;4.50;2.55;;;;;;;12.84;51.46;150879.38;1762398;80;21029;-59
2022/05/04 03:49:54;;;;;;;7.65;2.90;;;;;;;12.94;51.28;150905.36;1762789;81;21101;-60
2022/05/04 03:52:21;;;;;;;5.37;2.52;;;;;;;13.03;51.06;150928.73;1762695;80;21295;-61
2022/05/04 03:54:48;;;;;;;4.10;2.60;;;;;;;13.16;50.92;150961.28;1762525;81;21061;-60
2022/05/04 03:57:15;;;;;;;5.37;2.50;;;;;;;13.32;50.75;151000.25;1762964;80;20898;-60
2022/05/04 03:59:43;;;;;;;5.58;2.47;;;;;;;13.50;50.52;151044.52;1762706;81;21032;-60
2022/05/04 04:02:10;;;;;;;5.40;2.27;;;;;;;13.68;50.17;151090.02;1763069;81;21475;-60
2022/05/04 04:04:37;;;;;;;5.83;2.83;;;;;;;13.90;49.94;151145.97;1762536;81;21434;-60
2022/05/04 04:07:05;;;;;;;5.22;2.40;;;;;;;14.16;49.50;151212.33;1762807;81;20998;-61
2022/05/04 04:09:32;;;;;;;6.67;2.98;;;;;;;14.43;48.88;151278.66;1762496;81;21037;-61
2022/05/04 04:12:00;;;;;;;6.47;2.83;;;;;;;14.70;48.40;151347.62;1763034;81;21084;-61
2022/05/04 04:14:28;;;;;;;6.10;2.70;;;;;;;14.97;47.79;151414.08;1762508;81;21085;-60
2022/05/04 04:16:55;;;;;;;6.00;2.42;;;;;;;15.22;47.33;151476.56;1762603;80;21192;-62
2022/05/04 04:19:22;;;;;;;4.95;2.55;;;;;;;15.44;46.77;151533.84;1762615;81;21005;-60
2022/05/04 04:21:53;;;;;;;3.70;2.37;;;;;;;15.64;46.32;151583.34;1761855;80;21037;-62
2022/05/04 04:24:21;;;;;;;6.72;2.62;;;;;;;15.81;46.08;151625.03;1762113;80;20986;-60
2022/05/04 04:26:50;;;;;;;4.95;2.65;;;;;;;15.95;45.72;151660.25;1762009;80;21633;-59
2022/05/04 04:29:17;;;;;;;5.22;2.50;;;;;;;16.03;45.29;151682.39;1762464;81;22149;-59
2022/05/04 04:31:44;;;;;;;5.12;2.50;;;;;;;16.09;45.00;151695.41;1762019;81;21100;-59
2022/05/04 04:34:12;;;;;;;6.00;2.70;;;;;;;16.10;44.95;151699.28;1762753;81;21026;-60
2022/05/04 04:36:39;;;;;;;7.35;2.60;;;;;;;16.13;44.82;151707.09;1761833;81;22192;-60
2022/05/04 04:39:06;;;;;;;6.80;2.37;;;;;;;16.16;44.87;151713.62;1762460;81;21041;-60
2022/05/04 04:41:33;;;;;;;7.37;2.47;;;;;;;16.21;44.93;151726.64;1762408;81;21636;-59
2022/05/04 04:44:01;;;;;;;6.55;2.60;;;;;;;16.26;44.98;151739.70;1762470;81;21045;-60
2022/05/04 04:46:29;;;;;;;5.35;2.90;;;;;;;16.30;44.89;151748.80;1762680;81;20957;-61
2022/05/04 04:48:58;;;;;;;5.05;2.77;;;;;;;16.32;44.63;151755.33;1762508;80;21059;-60
2022/05/04 04:51:25;;;;;;;6.10;3.15;;;;;;;16.32;44.49;151755.33;1762403;80;21054;-61
2022/05/04 04:53:52;;;;;;;20.50;2.62;;;;;;;16.31;44.40;151752.72;1762630;81;22733;-61
2022/05/04 04:56:19;;;;;;;7.35;2.75;;;;;;;16.23;44.38;151731.84;1762528;81;20973;-59
2022/05/04 04:58:47;;;;;;;5.10;2.70;;;;;;;16.15;44.76;151711.03;1762478;80;21120;-60
2022/05/04 05:01:14;;;;;;;6.15;2.50;;;;;;;16.09;45.08;151695.41;1762851;81;21467;-60
2022/05/04 05:03:41;;;;;;;6.60;2.65;;;;;;;16.02;45.10;151679.73;1762774;81;21069;-59
2022/05/04 05:06:12;;;;;;;3.67;2.58;;;;;;;15.96;45.21;151662.84;1763230;81;21877;-59
2022/05/04 05:08:41;;;;;;;8.20;2.95;;;;;;;15.90;45.47;151648.50;1762658;81;21076;-60
2022/05/04 05:11:08;;;;;;;6.75;2.87;;;;;;;15.87;45.57;151640.64;1762915;81;20939;-61
2022/05/04 05:16:24;;;;;;;7.70;2.52;;;;;;;15.88;45.62;151643.25;1772418;79;21052;-60
2022/05/04 05:18:51;;;;;;;9.70;2.67;;;;;;;15.88;45.60;151643.25;1784995;80;21198;-60
2022/05/04 05:21:18;;;;;;;5.22;2.62;;;;;;;15.83;45.76;151630.23;1785228;80;21454;-60
2022/05/04 05:23:46;;;;;;;4.05;2.50;;;;;;;15.78;45.90;151617.17;1785568;80;21036;-60
2022/05/04 05:26:13;;;;;;;7.60;2.58;;;;;;;15.73;46.08;151606.77;1785228;80;20993;-60
2022/05/04 05:28:40;;;;;;;6.40;2.80;;;;;;;15.73;46.23;151605.48;1784974;79;21445;-59
2022/05/04 05:31:08;;;;;;;5.87;2.58;;;;;;;15.71;46.50;151601.56;1785605;80;21340;-61
2022/05/04 05:33:36;;;;;;;9.40;2.72;;;;;;;15.72;46.78;151604.16;1785151;80;21011;-61
2022/05/04 05:36:04;;;;;;;6.28;3.12;;;;;;;15.73;47.18;151606.77;1785564;79;21019;-61
2022/05/04 05:38:31;;;;;;;6.60;2.58;;;;;;;15.72;47.62;151604.16;1785160;80;21036;-60
2022/05/04 05:40:59;;;;;;;5.35;2.55;;;;;;;15.73;47.89;151606.77;1785506;80;21014;-63
2022/05/04 05:43:28;;;;;;;6.75;2.70;;;;;;;15.72;48.10;151604.16;1785418;80;21434;-60
2022/05/04 05:45:55;;;;;;;13.38;3.30;;;;;;;15.78;48.32;151617.17;1785326;79;20968;-60
2022/05/04 05:48:23;;;;;;;7.30;2.98;;;;;;;15.80;48.48;151622.38;1784861;80;21001;-60
2022/05/04 05:50:51;;;;;;;6.70;2.65;;;;;;;15.83;48.79;151630.23;1784978;79;20957;-60
2022/05/04 05:53:19;;;;;;;8.53;2.30;;;;;;;15.80;48.77;151623.70;1785168;80;21048;-60
2022/05/04 05:55:50;;;;;;;4.90;2.47;;;;;;;15.77;48.98;151615.89;1785156;80;21131;-60
2022/05/04 05:58:17;;;;;;;4.05;2.40;;;;;;;15.75;49.01;151611.97;1785168;80;21071;-60
2022/05/04 06:00:44;;;;;;;8.20;2.60;;;;;;;15.73;49.07;151606.77;1785005;79;21089;-60
2022/05/04 06:03:13;;;;;;;3.90;2.00;;;;;;;15.71;49.17;151601.56;1785463;80;21013;-60
2022/05/04 06:05:41;;;;;;;6.87;2.42;;;;;;;15.69;49.38;151595.03;1785473;80;20988;-60
2022/05/04 06:08:09;;;;;;;4.12;2.25;;;;;;;15.68;49.42;151592.42;1785334;80;21363;-61
2022/05/04 06:10:37;;;;;;;6.42;2.52;;;;;;;15.68;49.36;151593.75;1785046;80;21083;-60
2022/05/04 06:13:05;;;;;;;6.25;2.85;;;;;;;15.66;49.51;151588.55;1785354;80;21032;-59
2022/05/04 06:15:33;;;;;;;4.90;2.58;;;;;;;15.70;49.69;151598.95;1785216;80;20932;-61
2022/05/04 06:18:01;;;;;;;6.10;2.62;;;;;;;15.78;49.93;151617.17;1785118;79;21075;-61
2022/05/04 06:20:29;;;;;;;5.12;2.80;;;;;;;15.86;49.94;151638.05;1785499;80;21623;-60
2022/05/04 06:22:56;;;;;;;7.05;2.70;;;;;;;15.93;49.85;151656.31;1785265;80;21440;-61
2022/05/04 06:25:25;;;;;;;6.25;3.00;;;;;;;15.99;49.90;151671.92;1785814;78;20996;-60
2022/05/04 06:27:52;;;;;;;7.33;2.60;;;;;;;16.10;49.73;151698.02;1787733;78;21602;-59
2022/05/04 06:35:50;;;;;;;5.65;3.05;;;;;;;16.30;49.32;151750.12;1789542;79;21012;-60
2022/05/04 06:38:18;;;;;;;6.33;2.77;;;;;;;16.39;49.18;151770.95;1801296;79;20941;-59
2022/05/04 06:40:49;;;;;;;6.03;2.95;;;;;;;16.48;49.07;151794.44;1800797;79;21127;-60
2022/05/04 06:43:16;;;;;;;6.62;2.70;;;;;;;16.55;48.97;151812.66;1792678;78;20955;-61
2022/05/04 06:45:43;;;;;;;6.15;2.70;;;;;;;16.64;48.89;151833.50;1773864;78;21641;-60
2022/05/04 06:48:10;;;;;;;10.82;2.70;;;;;;;16.73;48.76;151856.98;1787784;79;21394;-61
2022/05/04 06:50:38;;;;;;;8.70;2.65;;;;;;;16.77;48.64;151867.41;1781658;78;21028;-60
2022/05/04 06:53:06;;;;;;;10.28;2.90;;;;;;;16.82;48.59;151879.14;1790094;79;21028;-59
2022/05/04 06:55:33;;;;;;;8.35;2.92;;;;;;;16.84;48.62;151885.62;1790379;78;21027;-59
2022/05/04 06:58:01;;;;;;;6.35;2.60;;;;;;;16.87;48.79;151893.44;1790329;78;21600;-59
2022/05/04 07:00:28;;;;;;;7.08;2.47;;;;;;;16.89;48.59;151898.66;1790455;78;21531;-60
2022/05/04 07:02:55;;;;;;;8.90;2.80;;;;;;;16.91;48.61;151902.58;1800367;79;21007;-60
2022/05/04 07:05:22;;;;;;;5.75;2.95;;;;;;;16.92;48.71;151905.19;1785049;80;21430;-59
2022/05/04 07:07:50;;;;;;;7.28;3.22;;;;;;;16.99;48.68;151922.19;1784705;80;21644;-60
2022/05/04 07:10:17;;;;;;;4.08;2.65;;;;;;;17.06;48.71;151940.42;1785924;79;21857;-59
2022/05/04 07:12:45;;;;;;;5.97;2.72;;;;;;;17.21;48.55;151976.94;1789908;79;21038;-60
2022/05/04 07:15:12;;;;;;;27.65;3.35;;;;;;;17.28;48.50;151995.17;1796703;79;21041;-61
2022/05/04 07:17:40;;;;;;;6.40;3.42;;;;;;;17.37;48.51;152018.67;1798805;79;21632;-61
2022/05/04 07:20:09;;;;;;;10.85;3.67;;;;;;;17.52;48.35;152055.16;1771269;79;21095;-62
2022/05/04 07:22:36;;;;;;;6.28;3.27;;;;;;;17.65;48.21;152089.06;1796676;79;21679;-60
2022/05/04 07:25:05;;;;;;;10.10;2.92;;;;;;;17.79;48.18;152122.95;1802861;79;21059;-62
2022/05/04 07:27:33;;;;;;;3.17;2.58;;;;;;;17.90;48.06;152151.67;1803379;79;21680;-61
2022/05/04 07:30:01;;;;;;;5.17;2.33;;;;;;;17.99;48.14;152175.13;1803483;79;21064;-62
2022/05/04 07:32:28;;;;;;;5.03;2.50;;;;;;;18.03;48.11;152185.66;1805531;79;21517;-61
2022/05/04 07:34:55;;;;;;;6.42;2.67;;;;;;;18.10;48.26;152201.28;1805840;79;21237;-62
2022/05/04 07:37:22;;;;;;;4.15;2.50;;;;;;;18.14;48.13;152213.03;1805634;79;20904;-60
2022/05/04 07:42:39;;;;;;;4.22;2.50;;;;;;;18.08;47.87;152196.08;1805289;79;21472;-59
2022/05/04 07:45:11;;;;;;;6.05;2.50;;;;;;;18.02;48.31;152183.03;1805776;79;20965;-61
2022/05/04 07:47:38;;;;;;;6.72;2.65;;;;;;;18.02;48.60;152183.03;1805740;79;21257;-61
2022/05/04 07:50:08;;;;;;;7.45;2.87;;;;;;;17.99;48.89;152175.13;1804981;79;21079;-61
2022/05/04 07:52:35;;;;;;;5.53;2.47;;;;;;;17.94;49.01;152162.09;1806154;78;20956;-60
2022/05/04 07:55:05;;;;;;;5.28;3.33;;;;;;;17.88;49.24;152147.73;1792496;79;21115;-61
2022/05/04 07:57:32;;;;;;;7.75;3.33;;;;;;;17.84;49.63;152136.03;1790934;79;21043;-61
2022/05/04 08:05:34;;;;;;;8.38;3.45;;;;;;;17.68;51.66;152096.89;1805939;79;20461;-60
2022/05/04 08:08:01;;;;;;;8.10;3.62;;;;;;;17.58;52.26;152070.83;1783502;79;21068;-60
2022/05/04 08:10:28;;;;;;;5.15;3.12;;;;;;;17.52;53.08;152055.16;1791786;79;21095;-61
2022/05/04 08:12:58;;;;;;;4.70;3.12;;;;;;;17.41;53.66;152029.09;1771312;81;39857;-61
2022/05/04 08:15:26;;;;;;;10.20;4.33;;;;;;;17.35;54.17;152013.41;1792174;79;20942;-61
2022/05/04 08:17:53;;;;;;;7.97;4.58;;;;;;;17.27;55.11;151992.56;1802535;79;21000;-60
2022/05/04 08:20:21;;;;;;;8.40;4.40;;;;;;;17.20;56.36;151974.33;1791604;79;21009;-61
2022/05/04 08:22:49;;;;;;;6.40;4.17;;;;;;;17.13;57.47;151958.70;1802718;79;21028;-61
2022/05/04 08:25:17;;;;;;;6.30;3.50;;;;;;;17.14;58.37;151959.98;1803345;79;21812;-61
2022/05/04 08:27:44;;;;;;;12.23;3.52;;;;;;;17.13;58.95;151957.38;1771856;79;21060;-60
2022/05/04 08:30:12;;;;;;;5.00;3.25;;;;;;;17.06;59.47;151940.42;1769757;81;21022;-60
2022/05/04 08:32:40;;;;;;;7.78;3.12;;;;;;;17.06;60.61;151940.42;1769104;81;21050;-59
2022/05/04 08:35:08;;;;;;;7.87;3.58;;;;;;;17.11;60.95;151953.45;1770570;79;21108;-60
2022/05/04 08:37:35;;;;;;;4.80;2.98;;;;;;;17.15;60.95;151963.92;1797947;79;21223;-60
2022/05/04 08:40:03;;;;;;;6.40;3.27;;;;;;;17.17;60.88;151969.13;1806088;78;21152;-60
2022/05/04 08:42:30;;;;;;;6.62;3.52;;;;;;;17.17;61.00;151969.13;1805194;79;21043;-59
2022/05/04 08:44:58;;;;;;;6.83;3.37;;;;;;;17.21;61.32;151976.94;1805625;79;21647;-59
2022/05/04 08:47:31;;;;;;;8.18;3.65;;;;;;;17.22;61.72;151979.55;1804298;79;20918;-59
2022/05/04 08:49:58;;;;;;;5.15;3.30;;;;;;;17.27;62.03;151992.56;1803202;79;21236;-60
2022/05/04 08:52:28;;;;;;;5.10;3.33;;;;;;;17.29;62.69;151997.78;1805894;79;20972;-59
2022/05/04 08:54:55;;;;;;;6.28;3.65;;;;;;;17.31;63.59;152004.31;1805642;79;21297;-60
2022/05/04 08:57:22;;;;;;;6.10;3.10;;;;;;;17.32;64.60;152005.59;1802881;79;21391;-60
2022/05/04 08:59:50;;;;;;;6.92;3.20;;;;;;;17.37;64.60;152018.67;1789774;79;21024;-60
2022/05/04 09:02:17;;;;;;;4.45;3.02;;;;;;;17.44;64.26;152036.91;1799886;79;21234;-61
2022/05/04 09:04:47;;;;;;;4.67;3.67;;;;;;;17.53;64.27;152059.08;1801596;79;21275;-60
2022/05/04 09:07:23;;;;;;;7.62;3.52;;;;;;;17.66;64.27;152091.69;1803796;79;20949;-59
2022/05/04 09:09:53;;;;;;;6.65;3.58;;;;;;;17.79;63.98;152122.95;1802568;79;21056;-60
2022/05/04 09:12:20;;;;;;;5.40;3.62;;;;;;;17.89;64.19;152150.34;1802990;79;21029;-59
2022/05/04 09:14:49;;;;;;;6.53;3.10;;;;;;;18.00;64.27;152177.73;1791111;78;21127;-60
2022/05/04 09:17:16;;;;;;;5.72;3.27;;;;;;;18.12;63.84;152207.78;1746099;80;21042;-60
2022/05/04 09:22:42;;;;;;;5.67;3.12;;;;;;;18.32;62.10;152258.69;1822610;78;21019;-59
2022/05/04 09:25:18;;;;;;;6.87;3.58;;;;;;;18.46;61.40;152292.62;1823240;78;21027;-59
2022/05/04 09:27:46;;;;;;;5.17;3.45;;;;;;;18.59;61.18;152325.23;1822714;78;21778;-60
2022/05/04 09:30:13;;;;;;;5.62;2.92;;;;;;;18.75;60.56;152365.69;1823701;78;21327;-61
2022/05/04 09:32:41;;;;;;;3.62;3.22;;;;;;;18.88;59.88;152399.59;1822970;78;21090;-59
2022/05/04 09:35:15;;;;;;;4.65;3.00;;;;;;;19.06;59.30;152442.75;1821724;78;21042;-61
2022/05/04 09:46:11;;;;;;;5.45;3.08;;;;;;;19.45;57.74;152543.25;1823143;78;20940;-60
2022/05/04 09:48:40;;;;;;;4.37;2.80;;;;;;;19.49;57.86;152551.06;1822631;78;21011;-60
2022/05/04 09:51:09;;;;;;;5.37;3.00;;;;;;;19.61;57.65;152582.42;1817030;78;21067;-61
2022/05/04 09:53:37;;;;;;;3.10;2.58;;;;;;;19.71;57.32;152608.52;1809690;78;21457;-59
2022/05/04 09:56:05;;;;;;;3.72;2.42;;;;;;;19.84;55.61;152641.16;1821797;78;21027;-61
2022/05/04 09:58:33;;;;;;;3.05;2.47;;;;;;;19.95;53.88;152668.62;1821617;78;21085;-60
2022/05/04 10:01:00;;;;;;;4.22;2.45;;;;;;;20.02;52.86;152686.95;1820823;78;21075;-60
2022/05/04 10:03:30;;;;;;;5.28;2.50;;;;;;;20.10;51.39;152706.50;1820568;78;20884;-60
2022/05/04 10:05:59;;;;;;;4.30;2.33;;;;;;;20.17;50.85;152723.50;1820585;78;22599;-60
2022/05/04 10:08:26;;;;;;;5.03;2.42;;;;;;;20.24;50.32;152741.81;1762555;78;20945;-59
2022/05/04 10:10:54;;;;;;;4.17;2.40;;;;;;;20.30;49.79;152756.14;1786523;79;21487;-60
2022/05/04 10:13:21;;;;;;;2.85;2.22;;;;;;;20.39;48.92;152778.36;1816857;78;21051;-62
2022/05/04 10:15:51;;;;;;;4.17;2.20;;;;;;;20.48;48.24;152801.91;1820469;78;22143;-60
2022/05/04 10:18:24;;;;;;;5.20;2.30;;;;;;;20.56;47.61;152821.50;1812312;78;20932;-60
2022/05/04 10:21:05;;;;;;;5.00;2.30;;;;;;;20.64;47.51;152841.06;1805805;79;20991;-60
2022/05/04 10:23:37;;;;;;;4.17;2.35;;;;;;;20.73;46.74;152864.61;1809881;77;21789;-60
2022/05/04 10:26:05;;;;;;;3.40;2.30;;;;;;;20.80;46.39;152882.94;1805948;78;21051;-58
2022/05/04 10:28:40;;;;;;;3.40;2.55;;;;;;;20.91;45.51;152910.38;1804338;78;21035;-60
2022/05/04 10:31:13;;;;;;;3.67;1.98;;;;;;;20.99;44.92;152929.98;1801101;79;21318;-59
2022/05/04 10:33:42;;;;;;;4.90;2.30;;;;;;;21.13;44.29;152966.59;1802722;79;20992;-60
2022/05/04 10:36:19;;;;;;;4.45;2.45;;;;;;;21.24;44.11;152992.72;1746743;81;21017;-59
2022/05/04 10:38:52;;;;;;;3.80;2.22;;;;;;;21.32;44.06;153014.94;1803335;79;21007;-61
2022/05/04 10:41:35;;;;;;;3.02;2.33;;;;;;;21.44;44.02;153045.00;1778869;79;20908;-59
2022/05/04 10:44:03;;;;;;;3.50;2.10;;;;;;;21.52;43.44;153063.28;1803522;79;21209;-60
2022/05/04 10:46:31;;;;;;;2.95;2.30;;;;;;;21.58;43.50;153079.00;1793133;79;20977;-61
2022/05/04 10:49:07;;;;;;;6.08;2.52;;;;;;;21.66;43.36;153099.95;1781009;79;21044;-61
2022/05/04 10:51:39;;;;;;;9.23;2.20;;;;;;;21.71;43.04;153113.02;1790215;79;21041;-60
2022/05/04 10:54:17;;;;;;;4.80;2.55;;;;;;;21.70;42.22;153110.41;1803184;79;21102;-60
2022/05/04 10:56:50;;;;;;;4.40;2.20;;;;;;;21.70;41.93;153109.13;1803986;79;21898;-61
2022/05/04 10:59:32;;;;;;;3.42;2.00;;;;;;;21.66;41.47;153099.95;1784134;79;20930;-61
2022/05/04 11:02:04;;;;;;;2.05;1.87;;;;;;;21.60;41.45;153085.52;1787246;79;21534;-60
2022/05/04 11:04:34;;;;;;;6.62;2.20;;;;;;;21.58;41.27;153079.00;1797945;79;21515;-61
2022/05/04 11:07:08;;;;;;;4.87;2.50;;;;;;;21.64;40.72;153094.69;1762167;81;21024;-61
2022/05/04 11:09:42;;;;;;;6.17;2.00;;;;;;;21.66;40.29;153098.63;1762656;80;21226;-61
2022/05/04 11:12:10;;;;;;;4.70;2.02;;;;;;;21.67;39.92;153102.56;1762601;80;21395;-60
2022/05/04 11:14:38;;;;;;;3.42;1.87;;;;;;;21.65;39.92;153097.34;1765623;79;21511;-60
2022/05/04 11:17:16;;;;;;;3.10;1.90;;;;;;;21.67;39.76;153102.56;1767845;79;21390;-60
2022/05/04 11:19:47;;;;;;;3.65;1.87;;;;;;;21.69;39.37;153107.80;1802976;79;21092;-60
2022/05/04 11:22:15;;;;;;;2.83;2.10;;;;;;;21.67;38.90;153102.56;1784570;79;21295;-60
2022/05/04 11:24:43;;;;;;;3.25;1.87;;;;;;;21.64;38.83;153094.69;1781488;79;21027;-60
2022/05/04 11:27:11;;;;;;;3.72;2.10;;;;;;;21.67;38.32;153102.56;1803413;79;21505;-64
2022/05/04 11:29:38;;;;;;;2.62;1.90;;;;;;;21.71;38.42;153113.02;1773570;79;21063;-61
2022/05/04 11:32:07;;;;;;;4.17;1.92;;;;;;;21.78;38.67;153130.03;1783243;79;21302;-60
2022/05/04 11:34:38;;;;;;;6.10;2.20;;;;;;;21.85;38.33;153148.31;1793333;79;22053;-61
2022/05/04 11:37:09;;;;;;;7.05;1.92;;;;;;;21.88;38.05;153154.88;1770276;79;21695;-61
2022/05/04 11:39:38;;;;;;;5.35;2.60;;;;;;;21.90;37.92;153160.09;1791815;79;21012;-61
2022/05/04 11:42:10;;;;;;;3.40;2.00;;;;;;;21.87;37.96;153153.53;1803159;79;21652;-61
2022/05/04 11:44:46;;;;;;;3.08;1.80;;;;;;;21.85;38.17;153148.31;1796645;79;20912;-60
2022/05/04 11:47:09;;;;;;;4.35;2.02;;;;;;;21.87;38.70;153152.25;1772630;80;21851;-60
2022/05/04 11:49:38;;;;;;;5.35;2.00;;;;;;;21.87;39.10;153152.25;1790600;79;21074;-61
2022/05/04 11:52:07;;;;;;;4.75;2.20;;;;;;;21.91;39.34;153161.44;1796320;79;21446;-60
2022/05/04 11:54:35;;;;;;;2.42;1.92;;;;;;;21.93;39.30;153167.94;1796837;79;21175;-59
2022/05/04 11:57:04;;;;;;;3.58;2.02;;;;;;;21.93;39.08;153167.94;1771999;79;21036;-59
2022/05/04 11:59:31;;;;;;;4.40;2.00;;;;;;;21.84;39.19;153145.70;1745646;79;21219;-58
2022/05/04 12:01:59;;;;;;;2.62;2.22;;;;;;;21.83;38.68;153141.81;1793530;79;20957;-61